sensor_id;sensor_type;location;lat;lon;timestamp;temperature;humidity
16700;DHT22;8466;52.286;21.124;2023-11-18T00:01:08;1.40;99.90
16700;DHT22;8466;52.286;21.124;2023-11-18T00:03:37;1.40;99.90
16700;DHT22;8466;52.286;21.124;2023-11-18T00:06:07;1.40;99.90
16700;DHT22;8466;52.286;21.124;2023-11-18T00:08:36;1.40;99.90
16700;DHT22;8466;52.286;21.124;2023-11-18T00:11:05;1.40;99.90
16700;DHT22;8466;52.286;21.124;2023-11-18T00:13:34;1.50;99.90
16700;DHT22;8466;52.286;21.124;2023-11-18T00:16:05;1.50;99.90
16700;DHT22;8466;52.286;21.124;2023-11-18T00:18:33;1.40;99.90
16700;DHT22;8466;52.286;21.124;2023-11-18T00:21:02;1.40;99.90
16700;DHT22;8466;52.286;21.124;2023-11-18T00:23:31;1.40;99.90
16700;DHT22;8466;52.286;21.124;2023-11-18T00:26:00;1.30;99.90
16700;DHT22;8466;52.286;21.124;2023-11-18T00:28:29;1.40;99.90
16700;DHT22;8466;52.286;21.124;2023-11-18T00:30:58;1.30;99.90
16700;DHT22;8466;52.286;21.124;2023-11-18T00:33:28;1.30;99.90
16700;DHT22;8466;52.286;21.124;2023-11-18T00:35:57;1.30;99.90
16700;DHT22;8466;52.286;21.124;2023-11-18T00:38:27;1.30;99.90
16700;DHT22;8466;52.286;21.124;2023-11-18T00:40:56;1.30;99.90
16700;DHT22;8466;52.286;21.124;2023-11-18T00:43:25;1.40;99.90
16700;DHT22;8466;52.286;21.124;2023-11-18T00:45:53;1.40;99.90
16700;DHT22;8466;52.286;21.124;2023-11-18T00:48:23;1.40;99.90
16700;DHT22;8466;52.286;21.124;2023-11-18T00:50:53;1.40;99.90
16700;DHT22;8466;52.286;21.124;2023-11-18T00:53:23;1.40;99.90
16700;DHT22;8466;52.286;21.124;2023-11-18T00:55:52;1.40;99.90
16700;DHT22;8466;52.286;21.124;2023-11-18T00:58:20;1.40;99.90
16700;DHT22;8466;52.286;21.124;2023-11-18T01:00:49;1.40;99.90
16700;DHT22;8466;52.286;21.124;2023-11-18T01:03:18;1.40;99.90
16700;DHT22;8466;52.286;21.124;2023-11-18T01:05:47;1.40;99.90
16700;DHT22;8466;52.286;21.124;2023-11-18T01:08:17;1.40;99.90
16700;DHT22;8466;52.286;21.124;2023-11-18T01:10:45;1.40;99.90
16700;DHT22;8466;52.286;21.124;2023-11-18T01:13:14;1.40;99.90
16700;DHT22;8466;52.286;21.124;2023-11-18T01:15:43;1.40;99.90
16700;DHT22;8466;52.286;21.124;2023-11-18T01:18:11;1.40;99.90
16700;DHT22;8466;52.286;21.124;2023-11-18T01:20:40;1.40;99.90
16700;DHT22;8466;52.286;21.124;2023-11-18T01:23:09;1.40;99.90
16700;DHT22;8466;52.286;21.124;2023-11-18T01:25:39;1.40;99.90
16700;DHT22;8466;52.286;21.124;2023-11-18T01:28:08;1.40;99.90
16700;DHT22;8466;52.286;21.124;2023-11-18T01:30:37;1.40;99.90
16700;DHT22;8466;52.286;21.124;2023-11-18T01:33:06;1.40;99.90
16700;DHT22;8466;52.286;21.124;2023-11-18T01:35:35;1.40;99.90
16700;DHT22;8466;52.286;21.124;2023-11-18T01:38:04;1.40;99.90
16700;DHT22;8466;52.286;21.124;2023-11-18T01:40:33;1.40;99.90
16700;DHT22;8466;52.286;21.124;2023-11-18T01:43:03;1.40;99.90
16700;DHT22;8466;52.286;21.124;2023-11-18T01:45:38;1.40;99.90
16700;DHT22;8466;52.286;21.124;2023-11-18T01:48:08;1.40;99.90
16700;DHT22;8466;52.286;21.124;2023-11-18T01:50:38;1.30;99.90
16700;DHT22;8466;52.286;21.124;2023-11-18T01:53:08;1.30;99.90
16700;DHT22;8466;52.286;21.124;2023-11-18T01:55:38;1.30;99.90
16700;DHT22;8466;52.286;21.124;2023-11-18T01:58:09;1.30;99.90
16700;DHT22;8466;52.286;21.124;2023-11-18T02:00:40;1.30;99.90
16700;DHT22;8466;52.286;21.124;2023-11-18T02:03:10;1.30;99.90
16700;DHT22;8466;52.286;21.124;2023-11-18T02:05:39;1.30;99.90
16700;DHT22;8466;52.286;21.124;2023-11-18T02:08:09;1.40;99.90
16700;DHT22;8466;52.286;21.124;2023-11-18T02:10:46;1.40;99.90
16700;DHT22;8466;52.286;21.124;2023-11-18T02:13:22;1.40;99.90
16700;DHT22;8466;52.286;21.124;2023-11-18T02:15:56;1.30;99.90
16700;DHT22;8466;52.286;21.124;2023-11-18T02:18:25;1.40;99.90
16700;DHT22;8466;52.286;21.124;2023-11-18T02:20:55;1.30;99.90
16700;DHT22;8466;52.286;21.124;2023-11-18T02:23:25;1.30;99.90
16700;DHT22;8466;52.286;21.124;2023-11-18T02:25:56;1.30;99.90
16700;DHT22;8466;52.286;21.124;2023-11-18T02:28:25;1.30;99.90
16700;DHT22;8466;52.286;21.124;2023-11-18T02:30:56;1.30;99.90
16700;DHT22;8466;52.286;21.124;2023-11-18T02:33:30;1.30;99.90
16700;DHT22;8466;52.286;21.124;2023-11-18T02:36:08;1.30;99.90
16700;DHT22;8466;52.286;21.124;2023-11-18T02:38:42;1.30;99.90
16700;DHT22;8466;52.286;21.124;2023-11-18T02:41:15;1.30;99.90
16700;DHT22;8466;52.286;21.124;2023-11-18T02:43:47;1.30;99.90
16700;DHT22;8466;52.286;21.124;2023-11-18T02:46:16;1.30;99.90
16700;DHT22;8466;52.286;21.124;2023-11-18T02:48:45;1.30;99.90
16700;DHT22;8466;52.286;21.124;2023-11-18T02:51:13;1.30;99.90
16700;DHT22;8466;52.286;21.124;2023-11-18T02:53:43;1.30;99.90
16700;DHT22;8466;52.286;21.124;2023-11-18T02:56:14;1.30;99.90
16700;DHT22;8466;52.286;21.124;2023-11-18T02:58:43;1.30;99.90
16700;DHT22;8466;52.286;21.124;2023-11-18T03:01:11;1.30;99.90
16700;DHT22;8466;52.286;21.124;2023-11-18T03:03:40;1.30;99.90
16700;DHT22;8466;52.286;21.124;2023-11-18T03:06:09;1.30;99.90
16700;DHT22;8466;52.286;21.124;2023-11-18T03:08:38;1.30;99.90
16700;DHT22;8466;52.286;21.124;2023-11-18T03:11:09;1.30;99.90
16700;DHT22;8466;52.286;21.124;2023-11-18T03:13:39;1.00;99.90
16700;DHT22;8466;52.286;21.124;2023-11-18T03:16:08;1.30;99.90
16700;DHT22;8466;52.286;21.124;2023-11-18T03:18:40;1.30;99.90
16700;DHT22;8466;52.286;21.124;2023-11-18T03:21:11;1.20;99.90
16700;DHT22;8466;52.286;21.124;2023-11-18T03:23:40;1.30;99.90
16700;DHT22;8466;52.286;21.124;2023-11-18T03:26:10;1.30;99.90
16700;DHT22;8466;52.286;21.124;2023-11-18T03:28:40;1.30;99.90
16700;DHT22;8466;52.286;21.124;2023-11-18T03:31:09;1.30;99.90
16700;DHT22;8466;52.286;21.124;2023-11-18T03:33:38;1.40;99.90
16700;DHT22;8466;52.286;21.124;2023-11-18T03:36:07;1.30;99.90
16700;DHT22;8466;52.286;21.124;2023-11-18T03:38:39;1.30;99.90
16700;DHT22;8466;52.286;21.124;2023-11-18T03:41:08;1.20;99.90
16700;DHT22;8466;52.286;21.124;2023-11-18T03:43:37;1.20;99.90
16700;DHT22;8466;52.286;21.124;2023-11-18T03:46:07;1.20;99.90
16700;DHT22;8466;52.286;21.124;2023-11-18T03:48:38;1.20;99.90
16700;DHT22;8466;52.286;21.124;2023-11-18T03:51:06;1.20;99.90
16700;DHT22;8466;52.286;21.124;2023-11-18T03:53:35;1.30;99.90
16700;DHT22;8466;52.286;21.124;2023-11-18T03:56:04;1.20;99.90
16700;DHT22;8466;52.286;21.124;2023-11-18T03:58:33;1.20;99.90
16700;DHT22;8466;52.286;21.124;2023-11-18T04:01:02;1.20;99.90
16700;DHT22;8466;52.286;21.124;2023-11-18T04:03:33;1.20;99.90
16700;DHT22;8466;52.286;21.124;2023-11-18T04:06:02;1.10;99.90
16700;DHT22;8466;52.286;21.124;2023-11-18T04:08:31;1.20;99.90
16700;DHT22;8466;52.286;21.124;2023-11-18T04:11:03;1.20;99.90
16700;DHT22;8466;52.286;21.124;2023-11-18T04:13:33;1.20;99.90
16700;DHT22;8466;52.286;21.124;2023-11-18T04:16:02;1.30;99.90
16700;DHT22;8466;52.286;21.124;2023-11-18T04:18:33;1.30;99.90
16700;DHT22;8466;52.286;21.124;2023-11-18T04:21:02;1.20;99.90
16700;DHT22;8466;52.286;21.124;2023-11-18T04:23:31;1.20;99.90
16700;DHT22;8466;52.286;21.124;2023-11-18T04:26:02;1.30;99.90
16700;DHT22;8466;52.286;21.124;2023-11-18T04:28:31;1.30;99.90
16700;DHT22;8466;52.286;21.124;2023-11-18T04:31:00;1.30;99.90
16700;DHT22;8466;52.286;21.124;2023-11-18T04:33:30;1.30;99.90
16700;DHT22;8466;52.286;21.124;2023-11-18T04:36:00;1.20;99.90
16700;DHT22;8466;52.286;21.124;2023-11-18T04:38:29;1.20;99.90
16700;DHT22;8466;52.286;21.124;2023-11-18T04:40:59;1.20;99.90
16700;DHT22;8466;52.286;21.124;2023-11-18T04:43:30;1.20;99.90
16700;DHT22;8466;52.286;21.124;2023-11-18T04:46:11;1.20;99.90
16700;DHT22;8466;52.286;21.124;2023-11-18T04:48:39;1.10;99.90
16700;DHT22;8466;52.286;21.124;2023-11-18T04:51:10;1.20;99.90
16700;DHT22;8466;52.286;21.124;2023-11-18T04:53:39;0.90;99.90
16700;DHT22;8466;52.286;21.124;2023-11-18T04:56:08;1.20;99.90
16700;DHT22;8466;52.286;21.124;2023-11-18T04:58:38;1.10;99.90
16700;DHT22;8466;52.286;21.124;2023-11-18T05:01:07;1.10;99.90
16700;DHT22;8466;52.286;21.124;2023-11-18T05:03:36;1.10;99.90
16700;DHT22;8466;52.286;21.124;2023-11-18T05:06:06;1.20;99.90
16700;DHT22;8466;52.286;21.124;2023-11-18T05:08:37;1.20;99.90
16700;DHT22;8466;52.286;21.124;2023-11-18T05:11:06;1.10;99.90
16700;DHT22;8466;52.286;21.124;2023-11-18T05:13:35;1.10;99.90
16700;DHT22;8466;52.286;21.124;2023-11-18T05:16:04;1.10;99.90
16700;DHT22;8466;52.286;21.124;2023-11-18T05:18:33;1.10;99.90
16700;DHT22;8466;52.286;21.124;2023-11-18T05:21:04;1.10;99.90
16700;DHT22;8466;52.286;21.124;2023-11-18T05:23:35;1.10;99.90
16700;DHT22;8466;52.286;21.124;2023-11-18T05:26:04;1.10;99.90
16700;DHT22;8466;52.286;21.124;2023-11-18T05:28:33;1.10;99.90
16700;DHT22;8466;52.286;21.124;2023-11-18T05:31:02;1.10;99.90
16700;DHT22;8466;52.286;21.124;2023-11-18T05:33:32;1.10;99.90
16700;DHT22;8466;52.286;21.124;2023-11-18T05:36:03;1.20;99.90
16700;DHT22;8466;52.286;21.124;2023-11-18T05:38:33;1.20;99.90
16700;DHT22;8466;52.286;21.124;2023-11-18T05:41:04;1.20;99.90
16700;DHT22;8466;52.286;21.124;2023-11-18T05:43:43;1.10;99.90
16700;DHT22;8466;52.286;21.124;2023-11-18T05:46:19;1.10;99.90
16700;DHT22;8466;52.286;21.124;2023-11-18T05:48:50;1.00;99.90
16700;DHT22;8466;52.286;21.124;2023-11-18T05:51:21;1.10;99.90
16700;DHT22;8466;52.286;21.124;2023-11-18T05:53:50;1.10;99.90
16700;DHT22;8466;52.286;21.124;2023-11-18T05:56:21;1.10;99.90
16700;DHT22;8466;52.286;21.124;2023-11-18T05:58:51;1.10;99.90
16700;DHT22;8466;52.286;21.124;2023-11-18T06:01:21;1.10;99.90
16700;DHT22;8466;52.286;21.124;2023-11-18T06:03:54;1.10;99.90
16700;DHT22;8466;52.286;21.124;2023-11-18T06:06:24;1.10;99.90
16700;DHT22;8466;52.286;21.124;2023-11-18T06:08:53;1.00;99.90
16700;DHT22;8466;52.286;21.124;2023-11-18T06:11:23;1.00;99.90
16700;DHT22;8466;52.286;21.124;2023-11-18T06:13:52;1.10;99.90
16700;DHT22;8466;52.286;21.124;2023-11-18T06:16:22;0.80;99.90
16700;DHT22;8466;52.286;21.124;2023-11-18T06:18:53;1.00;99.90
16700;DHT22;8466;52.286;21.124;2023-11-18T06:21:23;1.00;99.90
16700;DHT22;8466;52.286;21.124;2023-11-18T06:23:55;1.10;99.90
16700;DHT22;8466;52.286;21.124;2023-11-18T06:26:26;1.00;99.90
16700;DHT22;8466;52.286;21.124;2023-11-18T06:28:56;1.00;99.90
16700;DHT22;8466;52.286;21.124;2023-11-18T06:31:25;1.00;99.90
16700;DHT22;8466;52.286;21.124;2023-11-18T06:33:55;1.10;99.90
16700;DHT22;8466;52.286;21.124;2023-11-18T06:36:24;1.00;99.90
16700;DHT22;8466;52.286;21.124;2023-11-18T06:38:54;1.10;99.90
16700;DHT22;8466;52.286;21.124;2023-11-18T06:41:25;1.10;99.90
16700;DHT22;8466;52.286;21.124;2023-11-18T06:44:01;1.10;99.90
16700;DHT22;8466;52.286;21.124;2023-11-18T06:46:36;1.10;99.90
16700;DHT22;8466;52.286;21.124;2023-11-18T06:49:08;1.10;99.90
16700;DHT22;8466;52.286;21.124;2023-11-18T06:51:43;1.10;99.90
16700;DHT22;8466;52.286;21.124;2023-11-18T06:54:11;1.00;99.90
16700;DHT22;8466;52.286;21.124;2023-11-18T06:56:43;1.00;99.90
16700;DHT22;8466;52.286;21.124;2023-11-18T06:59:13;1.10;99.90
16700;DHT22;8466;52.286;21.124;2023-11-18T07:01:43;1.10;99.90
16700;DHT22;8466;52.286;21.124;2023-11-18T07:04:13;1.10;99.90
16700;DHT22;8466;52.286;21.124;2023-11-18T07:06:43;1.20;99.90
16700;DHT22;8466;52.286;21.124;2023-11-18T07:09:12;1.20;99.90
16700;DHT22;8466;52.286;21.124;2023-11-18T07:11:47;1.20;99.90
16700;DHT22;8466;52.286;21.124;2023-11-18T07:14:18;1.20;99.90
16700;DHT22;8466;52.286;21.124;2023-11-18T07:16:51;1.30;99.90
16700;DHT22;8466;52.286;21.124;2023-11-18T07:19:26;1.60;99.90
16700;DHT22;8466;52.286;21.124;2023-11-18T07:21:56;1.40;99.90
16700;DHT22;8466;52.286;21.124;2023-11-18T07:24:26;1.30;99.90
16700;DHT22;8466;52.286;21.124;2023-11-18T07:27:15;1.30;99.90
16700;DHT22;8466;52.286;21.124;2023-11-18T07:34:12;1.40;99.90
16700;DHT22;8466;52.286;21.124;2023-11-18T07:41:14;1.50;99.90
16700;DHT22;8466;52.286;21.124;2023-11-18T08:30:34;1.80;99.90
16700;DHT22;8466;52.286;21.124;2023-11-18T08:33:03;1.80;99.90
16700;DHT22;8466;52.286;21.124;2023-11-18T08:35:38;1.80;99.90
16700;DHT22;8466;52.286;21.124;2023-11-18T08:38:46;1.80;99.90
16700;DHT22;8466;52.286;21.124;2023-11-18T08:41:52;1.80;99.90
16700;DHT22;8466;52.286;21.124;2023-11-18T08:52:53;2.00;99.90
16700;DHT22;8466;52.286;21.124;2023-11-18T09:03:30;2.00;99.90
16700;DHT22;8466;52.286;21.124;2023-11-18T09:06:04;1.90;99.90
16700;DHT22;8466;52.286;21.124;2023-11-18T09:08:54;1.90;99.90
16700;DHT22;8466;52.286;21.124;2023-11-18T09:11:25;1.90;99.90
16700;DHT22;8466;52.286;21.124;2023-11-18T09:14:00;1.90;99.90
16700;DHT22;8466;52.286;21.124;2023-11-18T09:16:31;1.90;99.90
16700;DHT22;8466;52.286;21.124;2023-11-18T09:19:05;1.90;99.90
16700;DHT22;8466;52.286;21.124;2023-11-18T09:21:34;2.00;99.90
16700;DHT22;8466;52.286;21.124;2023-11-18T09:24:06;2.00;99.90
16700;DHT22;8466;52.286;21.124;2023-11-18T09:26:39;2.10;99.90
16700;DHT22;8466;52.286;21.124;2023-11-18T09:29:34;2.20;99.90
16700;DHT22;8466;52.286;21.124;2023-11-18T09:32:16;2.30;99.90
16700;DHT22;8466;52.286;21.124;2023-11-18T09:35:30;2.30;99.90
16700;DHT22;8466;52.286;21.124;2023-11-18T09:43:13;2.30;99.90
16700;DHT22;8466;52.286;21.124;2023-11-18T10:13:53;2.00;99.90
16700;DHT22;8466;52.286;21.124;2023-11-18T10:16:42;2.00;99.90
16700;DHT22;8466;52.286;21.124;2023-11-18T10:24:19;2.10;99.90
16700;DHT22;8466;52.286;21.124;2023-11-18T10:46:35;2.20;99.90
16700;DHT22;8466;52.286;21.124;2023-11-18T10:49:47;2.20;99.90
16700;DHT22;8466;52.286;21.124;2023-11-18T10:52:28;2.20;99.90
16700;DHT22;8466;52.286;21.124;2023-11-18T10:55:58;2.00;99.90
16700;DHT22;8466;52.286;21.124;2023-11-18T10:58:43;2.20;99.90
16700;DHT22;8466;52.286;21.124;2023-11-18T11:02:18;2.10;99.90
16700;DHT22;8466;52.286;21.124;2023-11-18T11:04:56;2.10;99.90
16700;DHT22;8466;52.286;21.124;2023-11-18T11:07:42;2.10;99.90
16700;DHT22;8466;52.286;21.124;2023-11-18T11:16:40;2.00;99.90
16700;DHT22;8466;52.286;21.124;2023-11-18T11:19:18;2.00;99.90
16700;DHT22;8466;52.286;21.124;2023-11-18T11:21:54;2.00;99.90
16700;DHT22;8466;52.286;21.124;2023-11-18T11:24:32;2.00;99.90
16700;DHT22;8466;52.286;21.124;2023-11-18T11:27:09;2.10;99.90
16700;DHT22;8466;52.286;21.124;2023-11-18T11:29:50;2.10;99.90
16700;DHT22;8466;52.286;21.124;2023-11-18T11:32:26;2.10;99.90
16700;DHT22;8466;52.286;21.124;2023-11-18T11:35:01;2.10;99.90
16700;DHT22;8466;52.286;21.124;2023-11-18T11:37:36;2.20;99.90
16700;DHT22;8466;52.286;21.124;2023-11-18T11:40:08;2.10;99.90
16700;DHT22;8466;52.286;21.124;2023-11-18T11:42:40;2.20;99.90
16700;DHT22;8466;52.286;21.124;2023-11-18T11:45:10;2.10;99.90
16700;DHT22;8466;52.286;21.124;2023-11-18T11:47:49;2.10;99.90
16700;DHT22;8466;52.286;21.124;2023-11-18T11:50:54;2.10;99.90
16700;DHT22;8466;52.286;21.124;2023-11-18T11:53:29;2.20;99.90
16700;DHT22;8466;52.286;21.124;2023-11-18T11:56:01;2.10;99.90
16700;DHT22;8466;52.286;21.124;2023-11-18T11:58:35;2.10;99.90
16700;DHT22;8466;52.286;21.124;2023-11-18T12:01:16;2.10;99.90
16700;DHT22;8466;52.286;21.124;2023-11-18T12:03:46;2.20;99.90
16700;DHT22;8466;52.286;21.124;2023-11-18T12:06:21;2.20;99.90
16700;DHT22;8466;52.286;21.124;2023-11-18T12:08:52;2.20;99.90
16700;DHT22;8466;52.286;21.124;2023-11-18T12:11:22;2.20;99.90
16700;DHT22;8466;52.286;21.124;2023-11-18T12:14:09;2.20;99.90
16700;DHT22;8466;52.286;21.124;2023-11-18T12:16:59;2.20;99.90
16700;DHT22;8466;52.286;21.124;2023-11-18T12:19:35;2.20;99.90
16700;DHT22;8466;52.286;21.124;2023-11-18T12:22:16;2.20;99.90
16700;DHT22;8466;52.286;21.124;2023-11-18T12:28:15;2.20;99.90
16700;DHT22;8466;52.286;21.124;2023-11-18T12:30:49;2.10;99.90
16700;DHT22;8466;52.286;21.124;2023-11-18T12:33:23;2.10;99.90
16700;DHT22;8466;52.286;21.124;2023-11-18T12:36:19;2.10;99.90
16700;DHT22;8466;52.286;21.124;2023-11-18T12:42:02;2.10;99.90
16700;DHT22;8466;52.286;21.124;2023-11-18T12:45:04;2.10;99.90
16700;DHT22;8466;52.286;21.124;2023-11-18T12:47:42;2.20;99.90
16700;DHT22;8466;52.286;21.124;2023-11-18T12:50:15;2.20;99.90
16700;DHT22;8466;52.286;21.124;2023-11-18T12:52:52;2.20;99.90
16700;DHT22;8466;52.286;21.124;2023-11-18T12:55:27;2.20;99.90
16700;DHT22;8466;52.286;21.124;2023-11-18T12:58:00;2.30;99.90
16700;DHT22;8466;52.286;21.124;2023-11-18T13:00:32;2.20;99.90
16700;DHT22;8466;52.286;21.124;2023-11-18T13:03:04;2.30;99.90
16700;DHT22;8466;52.286;21.124;2023-11-18T13:05:38;2.30;99.90
16700;DHT22;8466;52.286;21.124;2023-11-18T13:08:07;2.30;99.90
16700;DHT22;8466;52.286;21.124;2023-11-18T13:10:41;2.20;99.90
16700;DHT22;8466;52.286;21.124;2023-11-18T13:13:11;2.10;99.90
16700;DHT22;8466;52.286;21.124;2023-11-18T13:15:45;2.00;99.90
16700;DHT22;8466;52.286;21.124;2023-11-18T13:18:16;1.90;99.90
16700;DHT22;8466;52.286;21.124;2023-11-18T13:20:54;1.90;99.90
16700;DHT22;8466;52.286;21.124;2023-11-18T13:23:27;1.80;99.90
16700;DHT22;8466;52.286;21.124;2023-11-18T13:25:59;1.70;99.90
16700;DHT22;8466;52.286;21.124;2023-11-18T13:28:30;1.70;99.90
16700;DHT22;8466;52.286;21.124;2023-11-18T13:30:58;1.70;99.90
16700;DHT22;8466;52.286;21.124;2023-11-18T13:33:28;1.70;99.90
16700;DHT22;8466;52.286;21.124;2023-11-18T13:35:57;1.60;99.90
16700;DHT22;8466;52.286;21.124;2023-11-18T13:38:26;1.60;99.90
16700;DHT22;8466;52.286;21.124;2023-11-18T13:40:58;1.50;99.90
16700;DHT22;8466;52.286;21.124;2023-11-18T13:43:41;1.60;99.90
16700;DHT22;8466;52.286;21.124;2023-11-18T13:46:11;1.50;99.90
16700;DHT22;8466;52.286;21.124;2023-11-18T13:48:41;1.50;99.90
16700;DHT22;8466;52.286;21.124;2023-11-18T13:51:11;1.40;99.90
16700;DHT22;8466;52.286;21.124;2023-11-18T13:53:41;1.40;99.90
16700;DHT22;8466;52.286;21.124;2023-11-18T13:56:21;1.30;99.90
16700;DHT22;8466;52.286;21.124;2023-11-18T13:58:51;1.50;99.90
16700;DHT22;8466;52.286;21.124;2023-11-18T14:01:21;1.50;99.90
16700;DHT22;8466;52.286;21.124;2023-11-18T14:03:50;1.40;99.90
16700;DHT22;8466;52.286;21.124;2023-11-18T14:06:22;1.40;99.90
16700;DHT22;8466;52.286;21.124;2023-11-18T14:08:50;1.40;99.90
16700;DHT22;8466;52.286;21.124;2023-11-18T14:11:21;1.30;99.90
16700;DHT22;8466;52.286;21.124;2023-11-18T14:14:00;1.20;99.90
16700;DHT22;8466;52.286;21.124;2023-11-18T14:16:29;1.20;99.90
16700;DHT22;8466;52.286;21.124;2023-11-18T14:18:58;1.20;99.90
16700;DHT22;8466;52.286;21.124;2023-11-18T14:21:27;1.20;99.90
16700;DHT22;8466;52.286;21.124;2023-11-18T14:23:55;1.20;99.90
16700;DHT22;8466;52.286;21.124;2023-11-18T14:26:31;1.10;99.90
16700;DHT22;8466;52.286;21.124;2023-11-18T14:29:00;1.10;99.90
16700;DHT22;8466;52.286;21.124;2023-11-18T14:31:35;1.10;99.90
16700;DHT22;8466;52.286;21.124;2023-11-18T14:34:07;1.10;99.90
16700;DHT22;8466;52.286;21.124;2023-11-18T14:36:38;1.10;99.90
16700;DHT22;8466;52.286;21.124;2023-11-18T14:39:09;1.00;99.90
16700;DHT22;8466;52.286;21.124;2023-11-18T14:41:43;1.00;99.90
16700;DHT22;8466;52.286;21.124;2023-11-18T14:44:13;1.00;99.90
16700;DHT22;8466;52.286;21.124;2023-11-18T14:46:42;0.90;99.90
16700;DHT22;8466;52.286;21.124;2023-11-18T14:49:10;1.00;99.90
16700;DHT22;8466;52.286;21.124;2023-11-18T14:51:39;1.00;99.90
16700;DHT22;8466;52.286;21.124;2023-11-18T14:54:10;0.90;99.90
16700;DHT22;8466;52.286;21.124;2023-11-18T14:56:40;1.00;99.90
16700;DHT22;8466;52.286;21.124;2023-11-18T14:59:10;0.90;99.90
16700;DHT22;8466;52.286;21.124;2023-11-18T15:01:39;0.90;99.90
16700;DHT22;8466;52.286;21.124;2023-11-18T15:04:11;0.80;99.90
16700;DHT22;8466;52.286;21.124;2023-11-18T15:06:40;0.80;99.90
16700;DHT22;8466;52.286;21.124;2023-11-18T15:09:09;0.90;99.90
16700;DHT22;8466;52.286;21.124;2023-11-18T15:11:38;0.80;99.90
16700;DHT22;8466;52.286;21.124;2023-11-18T15:14:07;0.80;99.90
16700;DHT22;8466;52.286;21.124;2023-11-18T15:16:40;0.80;99.90
16700;DHT22;8466;52.286;21.124;2023-11-18T15:19:10;0.80;99.90
16700;DHT22;8466;52.286;21.124;2023-11-18T15:21:39;0.70;99.90
16700;DHT22;8466;52.286;21.124;2023-11-18T15:24:09;0.70;99.90
16700;DHT22;8466;52.286;21.124;2023-11-18T15:26:37;0.70;99.90
16700;DHT22;8466;52.286;21.124;2023-11-18T15:29:06;0.70;99.90
16700;DHT22;8466;52.286;21.124;2023-11-18T15:31:43;0.60;99.90
16700;DHT22;8466;52.286;21.124;2023-11-18T15:34:20;0.60;99.90
16700;DHT22;8466;52.286;21.124;2023-11-18T15:36:50;0.60;99.90
16700;DHT22;8466;52.286;21.124;2023-11-18T15:39:18;0.60;99.90
16700;DHT22;8466;52.286;21.124;2023-11-18T15:41:48;0.50;99.90
16700;DHT22;8466;52.286;21.124;2023-11-18T15:44:19;0.50;99.90
16700;DHT22;8466;52.286;21.124;2023-11-18T15:46:51;0.50;99.90
16700;DHT22;8466;52.286;21.124;2023-11-18T15:49:26;0.60;99.90
16700;DHT22;8466;52.286;21.124;2023-11-18T15:51:57;0.60;99.90
16700;DHT22;8466;52.286;21.124;2023-11-18T15:54:28;0.60;99.90
16700;DHT22;8466;52.286;21.124;2023-11-18T15:57:06;0.50;99.90
16700;DHT22;8466;52.286;21.124;2023-11-18T15:59:37;0.50;99.90
16700;DHT22;8466;52.286;21.124;2023-11-18T16:02:07;0.50;99.90
16700;DHT22;8466;52.286;21.124;2023-11-18T16:04:37;0.50;99.90
16700;DHT22;8466;52.286;21.124;2023-11-18T16:07:05;0.60;99.90
16700;DHT22;8466;52.286;21.124;2023-11-18T16:09:35;0.60;99.90
16700;DHT22;8466;52.286;21.124;2023-11-18T16:12:04;0.50;99.90
16700;DHT22;8466;52.286;21.124;2023-11-18T16:14:34;0.50;99.90
16700;DHT22;8466;52.286;21.124;2023-11-18T16:17:03;0.50;99.90
16700;DHT22;8466;52.286;21.124;2023-11-18T16:19:36;0.50;99.90
16700;DHT22;8466;52.286;21.124;2023-11-18T16:22:04;0.50;99.90
16700;DHT22;8466;52.286;21.124;2023-11-18T16:24:33;0.50;99.90
16700;DHT22;8466;52.286;21.124;2023-11-18T16:27:02;0.50;99.90
16700;DHT22;8466;52.286;21.124;2023-11-18T16:29:31;0.40;99.90
16700;DHT22;8466;52.286;21.124;2023-11-18T16:32:00;0.50;99.90
16700;DHT22;8466;52.286;21.124;2023-11-18T16:34:29;0.50;99.90
16700;DHT22;8466;52.286;21.124;2023-11-18T16:36:59;0.60;99.90
16700;DHT22;8466;52.286;21.124;2023-11-18T16:39:29;0.50;99.90
16700;DHT22;8466;52.286;21.124;2023-11-18T16:41:58;0.50;99.90
16700;DHT22;8466;52.286;21.124;2023-11-18T16:44:27;0.50;99.90
16700;DHT22;8466;52.286;21.124;2023-11-18T16:46:57;0.50;99.90
16700;DHT22;8466;52.286;21.124;2023-11-18T16:49:26;0.50;99.90
16700;DHT22;8466;52.286;21.124;2023-11-18T16:51:54;0.40;99.90
16700;DHT22;8466;52.286;21.124;2023-11-18T16:54:29;0.50;99.90
16700;DHT22;8466;52.286;21.124;2023-11-18T16:57:07;0.50;99.90
16700;DHT22;8466;52.286;21.124;2023-11-18T16:59:35;0.50;99.90
16700;DHT22;8466;52.286;21.124;2023-11-18T17:02:06;0.50;99.90
16700;DHT22;8466;52.286;21.124;2023-11-18T17:04:36;0.50;99.90
16700;DHT22;8466;52.286;21.124;2023-11-18T17:07:07;0.50;99.90
16700;DHT22;8466;52.286;21.124;2023-11-18T17:09:42;0.50;99.90
16700;DHT22;8466;52.286;21.124;2023-11-18T17:12:14;0.50;99.90
16700;DHT22;8466;52.286;21.124;2023-11-18T17:14:46;0.50;99.90
16700;DHT22;8466;52.286;21.124;2023-11-18T17:17:16;0.50;99.90
16700;DHT22;8466;52.286;21.124;2023-11-18T17:19:48;0.50;99.90
16700;DHT22;8466;52.286;21.124;2023-11-18T17:22:18;0.50;99.90
16700;DHT22;8466;52.286;21.124;2023-11-18T17:25:20;0.60;99.90
16700;DHT22;8466;52.286;21.124;2023-11-18T17:28:00;0.50;99.90
16700;DHT22;8466;52.286;21.124;2023-11-18T17:30:34;0.60;99.90
16700;DHT22;8466;52.286;21.124;2023-11-18T17:33:07;0.50;99.90
16700;DHT22;8466;52.286;21.124;2023-11-18T17:35:36;0.50;99.90
16700;DHT22;8466;52.286;21.124;2023-11-18T17:38:05;0.50;99.90
16700;DHT22;8466;52.286;21.124;2023-11-18T17:40:35;0.50;99.90
16700;DHT22;8466;52.286;21.124;2023-11-18T17:43:05;0.40;99.90
16700;DHT22;8466;52.286;21.124;2023-11-18T17:45:36;0.40;99.90
16700;DHT22;8466;52.286;21.124;2023-11-18T17:48:05;0.30;99.90
16700;DHT22;8466;52.286;21.124;2023-11-18T17:50:36;0.30;99.90
16700;DHT22;8466;52.286;21.124;2023-11-18T17:53:05;0.30;99.90
16700;DHT22;8466;52.286;21.124;2023-11-18T17:55:36;0.40;99.90
16700;DHT22;8466;52.286;21.124;2023-11-18T17:58:05;0.30;99.90
16700;DHT22;8466;52.286;21.124;2023-11-18T18:00:34;0.20;99.90
16700;DHT22;8466;52.286;21.124;2023-11-18T18:03:03;0.30;99.90
16700;DHT22;8466;52.286;21.124;2023-11-18T18:05:34;0.30;99.90
16700;DHT22;8466;52.286;21.124;2023-11-18T18:08:03;0.30;99.90
16700;DHT22;8466;52.286;21.124;2023-11-18T18:10:36;0.20;99.90
16700;DHT22;8466;52.286;21.124;2023-11-18T18:13:04;0.40;99.90
16700;DHT22;8466;52.286;21.124;2023-11-18T18:15:35;0.40;99.90
16700;DHT22;8466;52.286;21.124;2023-11-18T18:18:04;0.30;99.90
16700;DHT22;8466;52.286;21.124;2023-11-18T18:20:36;0.20;99.90
16700;DHT22;8466;52.286;21.124;2023-11-18T18:23:06;0.10;99.90
16700;DHT22;8466;52.286;21.124;2023-11-18T18:25:36;0.00;99.90
16700;DHT22;8466;52.286;21.124;2023-11-18T18:28:06;0.10;99.90
16700;DHT22;8466;52.286;21.124;2023-11-18T18:31:04;0.10;99.90
16700;DHT22;8466;52.286;21.124;2023-11-18T18:34:29;0.10;99.90
16700;DHT22;8466;52.286;21.124;2023-11-18T18:37:02;0.20;99.90
16700;DHT22;8466;52.286;21.124;2023-11-18T18:39:36;0.30;99.90
16700;DHT22;8466;52.286;21.124;2023-11-18T18:42:07;0.30;99.90